createdAt,value
2018-07-27T00:00:08.625Z,100624.17
2018-07-27T00:02:39.423Z,100623.41
2018-07-27T00:08:33.073Z,100621.69
2018-07-27T00:11:21.525Z,100621.53
2018-07-27T00:13:52.356Z,100620.11
2018-07-27T00:16:22.463Z,100619.52
2018-07-27T00:18:53.609Z,100618.83
2018-07-27T00:21:24.904Z,100613.49
2018-07-27T00:23:55.356Z,100611.84
2018-07-27T00:26:34.238Z,100614.98
2018-07-27T00:32:08.192Z,100613.91
2018-07-27T00:35:08.484Z,100609.33
2018-07-27T00:37:39.682Z,100607.44
2018-07-27T00:40:10.942Z,100610.58
2018-07-27T00:42:42.261Z,100610.11
2018-07-27T00:45:13.019Z,100608.10
2018-07-27T00:48:06.461Z,100607.81
2018-07-27T00:50:37.629Z,100611.74
2018-07-27T00:53:07.762Z,100604.64
2018-07-27T00:55:38.576Z,100601.86
2018-07-27T00:58:10.740Z,100606.28
2018-07-27T01:00:40.957Z,100606.54
2018-07-27T01:03:11.063Z,100600.14
2018-07-27T01:06:02.876Z,100601.78
2018-07-27T01:08:34.596Z,100599.87
2018-07-27T01:11:10.381Z,100596.98
2018-07-27T01:13:40.441Z,100598.59
2018-07-27T01:19:12.037Z,100594.70
2018-07-27T01:21:42.179Z,100595.77
2018-07-27T01:24:32.837Z,100595.52
2018-07-27T01:27:04.243Z,100589.48
2018-07-27T01:36:50.655Z,100584.22
2018-07-27T01:42:47.739Z,100586.37
2018-07-27T01:45:18.202Z,100578.84
2018-07-27T01:48:14.237Z,100578.17
2018-07-27T01:50:44.404Z,100573.31
2018-07-27T01:53:14.702Z,100576.49
2018-07-27T01:55:46.069Z,100582.98
2018-07-27T01:58:46.539Z,100579.43
2018-07-27T02:01:17.820Z,100579.72
2018-07-27T02:03:48.111Z,100579.03
2018-07-27T02:06:18.536Z,100577.86
2018-07-27T02:08:49.022Z,100581.16
2018-07-27T02:11:19.525Z,100571.11
2018-07-27T02:14:14.790Z,100572.33
2018-07-27T02:16:45.025Z,100575.20
2018-07-27T02:19:15.381Z,100570.02
2018-07-27T02:21:45.829Z,100572.31
2018-07-27T02:24:16.091Z,100571.09
2018-07-27T03:07:04.415Z,100558.58
2018-07-27T03:09:34.757Z,100554.71
2018-07-27T03:13:08.150Z,100554.02
2018-07-27T03:18:42.013Z,100550.45
2018-07-27T03:25:34.171Z,100551.63
2018-07-27T03:28:04.856Z,100557.09
2018-07-27T03:30:34.983Z,100559.34
2018-07-27T03:33:05.071Z,100557.98
2018-07-27T03:35:52.090Z,100557.75
2018-07-27T03:38:22.923Z,100555.77
2018-07-27T03:47:20.050Z,100561.02
2018-07-27T03:49:51.081Z,100557.55
2018-07-27T03:52:24.713Z,100557.22
2018-07-27T03:54:55.455Z,100555.29
2018-07-27T03:57:25.570Z,100560.13
2018-07-27T04:00:20.474Z,100551.39
2018-07-27T04:02:51.744Z,100548.73
2018-07-27T04:05:22.208Z,100549.94
2018-07-27T04:07:52.323Z,100549.90
2018-07-27T04:10:22.977Z,100556.19
2018-07-27T04:12:53.873Z,100551.02
2018-07-27T04:15:23.959Z,100561.07
2018-07-27T04:21:03.541Z,100561.27
2018-07-27T04:23:33.677Z,100563.91
2018-07-27T04:26:03.839Z,100558.86
2018-07-27T04:28:49.914Z,100560.70
2018-07-27T04:31:20.192Z,100567.25
2018-07-27T04:33:50.367Z,100568.17
2018-07-27T04:36:22.271Z,100570.52
2018-07-27T04:39:01.443Z,100577.09
2018-07-27T04:41:47.209Z,100575.09
2018-07-27T04:47:16.959Z,100567.98
2018-07-27T04:49:47.044Z,100578.50
2018-07-27T04:52:17.539Z,100576.59
2018-07-27T04:54:48.106Z,100570.70
2018-07-27T04:57:33.531Z,100574.68
2018-07-27T05:00:04.526Z,100573.60
2018-07-27T05:02:58.794Z,100572.05
2018-07-27T05:42:01.450Z,100566.69
2018-07-27T05:44:31.833Z,100567.23
2018-07-27T05:47:01.992Z,100574.27
2018-07-27T05:52:54.200Z,100571.32
2018-07-27T05:55:24.345Z,100572.98
2018-07-27T05:57:54.495Z,100578.98
2018-07-27T06:03:53.737Z,100574.26
2018-07-27T06:06:39.622Z,100580.07
2018-07-27T06:12:45.845Z,100567.13
2018-07-27T06:28:02.048Z,100571.12
2018-07-27T06:30:32.420Z,100567.11
2018-07-27T06:39:26.814Z,100566.35
2018-07-27T06:45:17.450Z,100571.77
2018-07-27T07:04:05.851Z,100562.02
2018-07-27T07:08:31.378Z,100558.52
2018-07-27T07:11:11.731Z,100560.46
2018-07-27T07:17:01.132Z,100557.22
2018-07-27T07:19:59.871Z,100559.98
2018-07-27T07:25:40.422Z,100560.05
2018-07-27T07:37:20.632Z,100550.53
2018-07-27T07:40:23.958Z,100550.23
2018-07-27T07:43:16.473Z,100546.23
2018-07-27T07:45:55.839Z,100544.45
2018-07-27T07:54:53.694Z,100545.08
2018-07-27T08:00:24.286Z,100537.70
2018-07-27T08:05:55.503Z,100530.60
2018-07-27T08:08:25.744Z,100523.51
2018-07-27T08:17:12.500Z,100514.31
2018-07-27T08:20:10.336Z,100516.77
2018-07-27T08:22:44.367Z,100505.53
2018-07-27T08:25:14.689Z,100506.79
2018-07-27T08:28:09.362Z,100500.12
2018-07-27T08:33:49.555Z,100510.56
2018-07-27T08:36:19.881Z,100502.22
2018-07-27T08:38:50.211Z,100490.64
2018-07-27T08:41:20.391Z,100497.47
2018-07-27T08:43:50.672Z,100489.42
2018-07-27T08:49:25.970Z,100488.72
2018-07-27T08:52:13.777Z,100483.69
2018-07-27T08:54:43.997Z,100477.70
2018-07-27T08:57:14.084Z,100485.88
2018-07-27T09:00:43.490Z,100482.97
2018-07-27T09:03:13.933Z,100484.32
2018-07-27T09:05:57.433Z,100487.55
2018-07-27T09:08:27.711Z,100479.25
2018-07-27T09:11:14.198Z,100483.17
2018-07-27T09:13:44.356Z,100474.36
2018-07-27T09:18:50.105Z,100465.17
2018-07-27T09:31:20.173Z,100451.00
2018-07-27T09:34:18.479Z,100442.93
2018-07-27T09:36:52.408Z,100446.87
2018-07-27T09:39:24.511Z,100446.42
2018-07-27T09:42:20.045Z,100443.91
2018-07-27T09:48:14.016Z,100431.59
2018-07-27T09:51:07.077Z,100437.29
2018-07-27T09:53:37.439Z,100432.89
2018-07-27T10:08:15.076Z,100422.89
2018-07-27T10:17:07.390Z,100429.30
2018-07-27T10:19:56.197Z,100422.16
2018-07-27T10:25:37.223Z,100415.14
2018-07-27T10:31:35.525Z,100408.25
2018-07-27T10:34:34.523Z,100406.34
2018-07-27T10:37:29.168Z,100397.73
2018-07-27T11:00:25.183Z,100387.89
2018-07-27T11:09:32.356Z,100377.83
2018-07-27T11:15:13.073Z,100373.59
2018-07-27T11:21:07.168Z,100361.81
2018-07-27T11:29:39.944Z,100356.45
2018-07-27T11:33:47.991Z,100353.12
2018-07-27T11:36:18.206Z,100342.27
2018-07-27T11:42:07.765Z,100329.98
2018-07-27T11:44:39.961Z,100323.47
2018-07-27T11:50:09.737Z,100317.98
2018-07-27T11:55:41.894Z,100312.99
2018-07-27T11:58:12.066Z,100318.58
2018-07-27T12:06:46.449Z,100291.44
2018-07-27T12:12:29.160Z,100289.05
2018-07-27T12:24:30.405Z,100275.42
2018-07-27T14:26:20.652Z,100145.19
2018-07-27T14:29:52.192Z,100138.25
2018-07-27T14:41:42.642Z,100127.25
2018-07-27T14:47:26.290Z,100115.66
2018-07-27T14:50:22.226Z,100118.13
2018-07-27T14:53:08.602Z,100108.09
2018-07-27T14:55:38.900Z,100104.33
2018-07-27T15:25:51.685Z,100075.77
2018-07-27T15:28:45.793Z,100077.19
2018-07-27T15:34:15.608Z,100074.59
2018-07-27T15:36:46.851Z,100069.55
2018-07-27T15:39:39.850Z,100077.27
2018-07-27T15:42:13.983Z,100070.89
2018-07-27T15:45:12.544Z,100066.77
2018-07-27T15:47:43.786Z,100066.36
2018-07-27T15:50:14.990Z,100058.67
2018-07-27T16:07:41.663Z,100035.20
2018-07-27T16:16:15.423Z,100045.84
2018-07-27T16:18:50.836Z,100032.83
2018-07-27T16:27:57.703Z,100023.99
2018-07-27T16:30:42.046Z,100025.35
2018-07-27T16:33:12.311Z,100019.77
2018-07-27T16:35:42.477Z,100026.25
2018-07-27T16:38:12.661Z,100020.10
2018-07-27T16:49:52.819Z,100014.13
2018-07-27T16:52:30.775Z,100018.12
2018-07-27T16:55:02.390Z,100016.48
2018-07-27T16:57:32.626Z,100015.45
2018-07-27T17:00:24.841Z,100010.34
2018-07-27T17:03:23.232Z,100021.28
2018-07-27T17:07:30.040Z,100014.29
2018-07-27T17:16:11.182Z,100014.29
2018-07-27T17:18:53.999Z,100014.25
2018-07-27T17:21:26.181Z,100006.22
2018-07-27T17:24:12.584Z,100008.00
2018-07-27T17:26:43.531Z,100008.40
2018-07-27T17:29:23.440Z,100007.27
2018-07-27T17:47:13.470Z,100004.28
2018-07-27T17:55:44.028Z,99999.58
2018-07-27T18:07:26.755Z,99995.38
2018-07-27T18:10:00.414Z,99983.07
2018-07-27T18:12:44.046Z,99988.36
2018-07-27T18:15:14.163Z,99985.11
2018-07-27T18:17:44.898Z,99983.36
2018-07-27T18:20:15.207Z,99986.75
2018-07-27T18:22:47.024Z,99989.45
2018-07-27T18:25:41.725Z,99986.09
2018-07-27T18:28:17.420Z,99992.38
2018-07-27T18:34:12.696Z,99994.86
2018-07-27T18:37:02.272Z,99989.03
2018-07-27T18:39:36.980Z,99988.05
2018-07-27T18:42:07.360Z,99985.21
2018-07-27T18:44:42.007Z,99981.97
2018-07-27T18:47:12.368Z,99985.53
2018-07-27T18:49:42.123Z,99982.11
2018-07-27T18:52:12.022Z,99980.82
2018-07-27T18:54:42.941Z,99978.70
2018-07-27T18:57:13.629Z,99972.58
2018-07-27T18:59:47.235Z,99983.59
2018-07-27T19:02:16.986Z,99980.02
2018-07-27T19:04:46.779Z,99970.98
2018-07-27T19:07:16.660Z,99978.81
2018-07-27T19:09:46.670Z,99976.86
2018-07-27T19:12:16.504Z,99981.89
2018-07-27T19:14:46.443Z,99982.62
2018-07-27T19:17:16.254Z,99984.50
2018-07-27T19:19:46.233Z,99979.73
2018-07-27T19:22:16.186Z,99979.28
2018-07-27T19:24:46.206Z,99970.69
2018-07-27T19:27:16.221Z,99981.71
2018-07-27T19:29:46.287Z,99979.02
2018-07-27T19:32:16.366Z,99979.84
2018-07-27T19:34:46.307Z,99980.56
2018-07-27T19:37:28.574Z,99984.83
2018-07-27T19:40:03.320Z,99983.97
2018-07-27T19:42:33.457Z,99987.33
2018-07-27T19:45:03.411Z,99983.95
2018-07-27T19:47:33.309Z,99976.86
2018-07-27T19:50:03.207Z,99980.44
2018-07-27T19:52:33.146Z,99982.40
2018-07-27T19:55:03.201Z,99980.14
2018-07-27T19:57:33.162Z,99974.41
2018-07-27T20:00:03.015Z,99979.55
2018-07-27T20:02:32.852Z,99980.30
2018-07-27T20:05:02.816Z,99980.59
2018-07-27T20:07:32.542Z,99976.67
2018-07-27T20:10:02.440Z,99985.75
2018-07-27T20:12:32.655Z,99989.41
2018-07-27T20:15:04.754Z,99994.81
2018-07-27T20:17:34.450Z,99991.26
2018-07-27T20:23:08.493Z,99997.22
2018-07-27T20:25:39.527Z,99994.37
2018-07-27T20:28:15.935Z,99983.95
2018-07-27T20:30:46.027Z,99984.52
2018-07-27T20:33:16.038Z,99987.81
2018-07-27T20:35:45.894Z,99984.03
2018-07-27T20:38:15.838Z,99982.36
2018-07-27T20:40:48.093Z,99982.58
2018-07-27T20:43:18.046Z,99984.70
2018-07-27T20:45:49.834Z,99982.20
2018-07-27T20:48:20.826Z,99985.89
2018-07-27T20:50:53.895Z,99992.28
2018-07-27T20:53:23.695Z,99985.97
2018-07-27T20:55:53.560Z,99986.50
2018-07-27T20:58:23.442Z,99986.66
2018-07-27T21:00:57.109Z,99986.98
2018-07-27T21:03:31.870Z,99985.81
2018-07-27T21:06:01.726Z,99984.03
2018-07-27T21:08:31.433Z,99988.55
2018-07-27T21:11:01.247Z,99989.38
2018-07-27T21:13:31.143Z,99992.78
2018-07-27T21:16:12.034Z,99988.24
2018-07-27T21:18:42.004Z,99989.51
2018-07-27T21:21:22.667Z,99997.23
2018-07-27T21:24:09.874Z,99996.70
2018-07-27T21:26:39.970Z,99995.80
2018-07-27T21:29:09.770Z,99989.79
2018-07-27T21:31:39.632Z,99997.49
2018-07-27T21:34:09.423Z,99993.84
2018-07-27T21:36:39.288Z,99989.17
2018-07-27T21:39:15.800Z,99984.81
2018-07-27T21:41:45.965Z,99988.30
2018-07-27T21:44:16.170Z,99986.63
2018-07-27T21:46:45.978Z,99990.77
2018-07-27T21:49:15.677Z,99988.02
2018-07-27T21:51:45.673Z,99997.47
2018-07-27T21:54:15.493Z,99988.17
2018-07-27T21:56:45.447Z,99984.48
2018-07-27T21:59:15.160Z,99983.03
2018-07-27T22:01:45.068Z,99978.17
2018-07-27T22:04:14.880Z,99982.64
2018-07-27T22:06:44.875Z,99983.80
2018-07-27T22:09:14.685Z,99981.95
2018-07-27T22:11:44.610Z,99979.53
2018-07-27T22:14:14.459Z,99980.29
2018-07-27T22:16:46.310Z,99978.52
2018-07-27T22:19:16.115Z,99970.31
2018-07-27T22:21:45.834Z,99974.93
2018-07-27T22:24:16.204Z,99963.98
2018-07-27T22:26:45.945Z,99958.79
2018-07-27T22:29:15.823Z,99957.77
2018-07-27T22:31:45.758Z,99955.91
2018-07-27T22:34:15.666Z,99954.53
2018-07-27T22:36:45.591Z,99962.55
2018-07-27T22:39:15.498Z,99956.17
2018-07-27T22:41:45.664Z,99954.83
2018-07-27T22:44:15.382Z,99953.66
2018-07-27T22:46:45.173Z,99956.59
2018-07-27T22:49:14.834Z,99950.81
2018-07-27T22:51:44.936Z,99956.68
2018-07-27T22:54:14.598Z,99952.53
2018-07-27T22:56:44.403Z,99945.84
2018-07-27T22:59:14.273Z,99937.63
2018-07-27T23:01:44.102Z,99939.39
2018-07-27T23:04:13.799Z,99936.79
2018-07-27T23:06:43.806Z,99936.98
2018-07-27T23:09:13.685Z,99933.78
2018-07-27T23:11:43.590Z,99933.31
2018-07-27T23:14:13.459Z,99927.00
2018-07-27T23:16:43.267Z,99928.88
2018-07-27T23:19:12.965Z,99929.70
2018-07-27T23:21:42.805Z,99928.05
2018-07-27T23:24:12.694Z,99922.16
2018-07-27T23:26:42.464Z,99925.97
2018-07-27T23:29:12.350Z,99920.42
2018-07-27T23:31:42.256Z,99921.12
2018-07-27T23:34:12.045Z,99920.47
2018-07-27T23:36:41.998Z,99915.84
2018-07-27T23:39:13.665Z,99917.80
2018-07-27T23:41:43.987Z,99907.95
2018-07-27T23:44:13.735Z,99903.24
2018-07-27T23:46:43.433Z,99897.92
2018-07-27T23:49:13.432Z,99897.48
2018-07-27T23:51:43.276Z,99896.31
2018-07-27T23:54:12.989Z,99898.83
2018-07-27T23:56:43.139Z,99889.27
2018-07-27T23:59:12.974Z,99891.20
